Time;durP1;ratioP1;P1;durP2;ratioP2;P2;SDS_P1;SDS_P2;PMS_P1;PMS_P2;Temp;Humidity;BMP_temperature;BMP_pressure;BME280_temperature;BME280_humidity;BME280_pressure;Samples;Min_cycle;Max_cycle;Signal;HPM_P1;HPM_P2
2022/11/18 00:01:54;;;;;;;5.15;1.35;;;8.90;99.90;;;;;;7324005;32;20188;-81
2022/11/18 00:05:57;;;;;;;3.37;1.15;;;9.00;99.90;;;;;;7321488;32;20181;-81
2022/11/18 00:09:59;;;;;;;3.90;1.33;;;9.00;99.90;;;;;;7338851;32;20103;-81
2022/11/18 00:18:36;;;;;;;3.87;1.33;;;9.10;99.90;;;;;;7310809;32;20119;-81
2022/11/18 00:22:38;;;;;;;7.60;1.33;;;9.10;99.90;;;;;;7339009;32;20172;-81
2022/11/18 00:26:40;;;;;;;7.25;1.33;;;9.20;99.90;;;;;;7332825;32;20123;-80
2022/11/18 00:30:42;;;;;;;7.45;1.80;;;9.20;99.90;;;;;;7339115;32;20318;-80
2022/11/18 00:34:44;;;;;;;5.85;1.48;;;9.20;99.90;;;;;;7311964;32;20177;-80
2022/11/18 00:38:46;;;;;;;4.10;1.17;;;9.20;99.90;;;;;;7338125;32;20104;-80
2022/11/18 00:42:51;;;;;;;3.30;0.93;;;9.20;99.90;;;;;;7333581;32;20100;-80
2022/11/18 00:46:53;;;;;;;5.45;1.20;;;9.20;99.90;;;;;;7337382;32;20441;-80
2022/11/18 00:50:58;;;;;;;6.28;1.25;;;9.20;99.90;;;;;;7345908;32;20165;-81
2022/11/18 00:55:00;;;;;;;5.32;1.50;;;9.10;99.90;;;;;;7326514;32;20137;-81
2022/11/18 00:59:02;;;;;;;4.62;1.60;;;9.10;99.90;;;;;;7338799;32;20218;-80
2022/11/18 01:03:04;;;;;;;4.97;1.10;;;9.20;99.90;;;;;;7321919;32;20123;-81
2022/11/18 01:07:06;;;;;;;4.30;1.33;;;9.20;99.90;;;;;;7323840;32;20176;-81
2022/11/18 01:15:42;;;;;;;7.55;1.40;;;9.20;99.90;;;;;;7313770;32;20210;-80
2022/11/18 01:19:44;;;;;;;5.07;1.08;;;9.20;99.90;;;;;;7327655;32;20123;-81
2022/11/18 01:23:46;;;;;;;4.05;1.20;;;9.10;99.90;;;;;;7344546;32;20139;-80
2022/11/18 01:27:48;;;;;;;6.07;1.33;;;9.20;99.90;;;;;;7326539;32;20116;-81
2022/11/18 01:31:51;;;;;;;4.12;1.10;;;9.20;99.90;;;;;;7350217;32;20072;-81
2022/11/18 01:36:24;;;;;;;4.40;1.40;;;9.20;99.90;;;;;;7338362;32;20190;-80
2022/11/18 01:40:28;;;;;;;5.65;1.08;;;9.10;99.90;;;;;;7338160;32;20111;-80
2022/11/18 01:45:08;;;;;;;4.50;1.40;;;9.20;99.90;;;;;;7339753;32;20154;-81
2022/11/18 01:49:13;;;;;;;6.97;1.20;;;9.10;99.90;;;;;;7335259;32;20182;-80
2022/11/18 01:53:22;;;;;;;5.93;1.33;;;9.10;99.90;;;;;;7339969;32;20172;-80
2022/11/18 01:57:26;;;;;;;7.55;1.85;;;9.20;99.90;;;;;;7330104;32;20188;-80
2022/11/18 02:01:28;;;;;;;3.62;1.15;;;9.10;99.90;;;;;;7327003;32;20153;-81
2022/11/18 02:05:32;;;;;;;5.28;1.30;;;9.00;99.90;;;;;;7320928;32;20528;-81
2022/11/18 02:09:36;;;;;;;7.75;1.60;;;9.10;99.90;;;;;;7332246;32;20664;-80
2022/11/18 02:13:38;;;;;;;5.90;1.30;;;9.10;99.90;;;;;;7326195;32;20184;-81
2022/11/18 02:17:56;;;;;;;7.07;1.48;;;9.10;99.90;;;;;;7345773;32;20180;-80
2022/11/18 02:22:14;;;;;;;4.60;1.40;;;9.10;99.90;;;;;;7336279;32;20150;-80
2022/11/18 02:26:25;;;;;;;6.32;1.30;;;9.10;99.90;;;;;;7313932;32;20115;-81
2022/11/18 02:30:31;;;;;;;5.70;1.30;;;9.10;99.90;;;;;;7343179;32;20108;-81
2022/11/18 02:34:49;;;;;;;7.15;1.20;;;9.10;99.90;;;;;;7327833;32;20190;-80
2022/11/18 02:38:58;;;;;;;4.37;1.23;;;9.10;99.90;;;;;;7343939;32;20131;-80
2022/11/18 02:43:13;;;;;;;7.05;1.40;;;9.10;99.90;;;;;;7333628;32;20175;-81
2022/11/18 02:47:17;;;;;;;7.40;1.50;;;9.10;99.90;;;;;;7324567;32;20772;-81
2022/11/18 02:51:24;;;;;;;5.15;1.62;;;9.10;99.90;;;;;;7334575;32;20111;-80
2022/11/18 02:55:30;;;;;;;4.43;1.33;;;9.00;99.90;;;;;;7343671;32;20142;-81
2022/11/18 02:59:32;;;;;;;8.05;1.25;;;9.00;99.90;;;;;;7336991;32;20594;-81
2022/11/18 03:03:35;;;;;;;6.15;1.50;;;9.00;99.90;;;;;;7325459;32;20175;-81
2022/11/18 03:07:42;;;;;;;6.18;1.33;;;9.00;99.90;;;;;;7340227;32;20267;-81
2022/11/18 03:12:03;;;;;;;;;;;9.00;99.90;;;;;;7325578;32;20165;-82
2022/11/18 03:16:22;;;;;;;3.17;0.90;;;9.00;99.90;;;;;;7316076;32;20046;-81
2022/11/18 03:20:32;;;;;;;4.50;1.25;;;9.00;99.90;;;;;;7348391;32;20115;-81
2022/11/18 03:24:38;;;;;;;5.05;1.10;;;9.00;99.90;;;;;;7331807;32;20240;-81
2022/11/18 03:29:26;;;;;;;6.63;1.40;;;9.00;99.90;;;;;;7319467;32;20599;-81
2022/11/18 03:33:35;;;;;;;4.82;1.25;;;9.00;99.90;;;;;;7337393;32;20636;-81
2022/11/18 03:37:38;;;;;;;5.43;1.00;;;9.00;99.90;;;;;;7325541;32;20203;-81
2022/11/18 03:41:48;;;;;;;6.37;1.20;;;9.10;99.90;;;;;;7329626;32;20124;-80
2022/11/18 03:45:55;;;;;;;3.67;1.20;;;9.10;99.90;;;;;;7306418;32;20116;-81
2022/11/18 03:50:17;;;;;;;4.22;1.23;;;9.10;99.90;;;;;;7326483;32;21775;-81
2022/11/18 03:54:32;;;;;;;6.07;1.35;;;9.10;99.90;;;;;;7342645;32;20179;-80
2022/11/18 03:58:48;;;;;;;5.18;1.30;;;9.10;99.90;;;;;;7340132;32;20271;-81
2022/11/18 04:02:51;;;;;;;7.50;1.45;;;9.10;99.90;;;;;;7347283;32;20069;-81
2022/11/18 04:07:07;;;;;;;5.35;1.23;;;9.10;99.90;;;;;;7343025;32;20224;-80
2022/11/18 04:15:43;;;;;;;5.78;1.65;;;9.10;99.90;;;;;;7337289;32;20112;-82
2022/11/18 04:19:46;;;;;;;5.10;1.20;;;9.20;99.90;;;;;;7340308;32;20158;-81
2022/11/18 04:23:48;;;;;;;4.65;1.33;;;9.10;99.90;;;;;;7338196;32;20115;-81
2022/11/18 04:27:51;;;;;;;4.65;1.27;;;9.10;99.90;;;;;;7352630;32;20122;-82
2022/11/18 04:31:53;;;;;;;5.90;1.42;;;9.10;99.90;;;;;;7348084;32;20159;-81
2022/11/18 04:35:55;;;;;;;7.03;1.90;;;9.10;99.90;;;;;;7347600;32;20180;-82
2022/11/18 04:39:57;;;;;;;5.22;1.50;;;9.00;99.90;;;;;;7342315;32;20169;-81
2022/11/18 04:43:59;;;;;;;5.50;1.30;;;9.00;99.90;;;;;;7329407;32;20177;-81
2022/11/18 04:48:01;;;;;;;6.75;1.42;;;9.00;99.90;;;;;;7328814;32;20919;-81
2022/11/18 04:52:05;;;;;;;6.97;1.58;;;8.90;99.90;;;;;;7338819;32;20180;-81
2022/11/18 04:56:07;;;;;;;7.95;2.17;;;8.90;99.90;;;;;;7339093;32;20122;-82
2022/11/18 05:00:10;;;;;;;6.68;1.80;;;9.00;99.90;;;;;;7324233;32;20217;-81
2022/11/18 05:04:14;;;;;;;7.43;2.17;;;9.00;99.90;;;;;;7329706;32;20135;-81
2022/11/18 05:08:16;;;;;;;8.13;1.80;;;8.90;99.90;;;;;;7347735;32;20793;-81
2022/11/18 05:16:39;;;;;;;5.78;2.10;;;9.00;99.90;;;;;;7327116;32;20119;-81
2022/11/18 05:20:41;;;;;;;6.10;1.75;;;9.00;99.90;;;;;;7330007;32;20190;-81
2022/11/18 05:24:43;;;;;;;7.78;1.95;;;8.90;99.90;;;;;;7316647;32;20218;-81
2022/11/18 05:28:46;;;;;;;4.60;1.58;;;9.00;99.90;;;;;;7316291;32;20119;-80
2022/11/18 05:32:48;;;;;;;6.20;2.00;;;8.90;99.90;;;;;;7330853;32;20116;-82
2022/11/18 05:36:50;;;;;;;9.90;2.20;;;9.00;99.90;;;;;;7335822;32;20175;-80
2022/11/18 05:40:52;;;;;;;6.50;2.20;;;8.90;99.90;;;;;;7325495;32;20108;-80
2022/11/18 05:44:54;;;;;;;7.43;2.40;;;8.90;99.90;;;;;;7321719;32;20205;-79
2022/11/18 05:48:59;;;;;;;8.45;2.10;;;9.00;99.90;;;;;;7334060;32;20672;-80
2022/11/18 05:53:02;;;;;;;5.18;2.15;;;9.00;99.90;;;;;;7313089;32;20104;-78
2022/11/18 05:57:05;;;;;;;6.15;2.30;;;8.90;99.90;;;;;;7334520;32;20233;-79
2022/11/18 06:01:08;;;;;;;6.03;2.28;;;8.90;99.90;;;;;;7316035;32;20099;-82
2022/11/18 06:05:12;;;;;;;9.15;2.20;;;8.90;99.90;;;;;;7297597;32;20132;-81
2022/11/18 06:09:16;;;;;;;6.12;2.95;;;8.90;99.90;;;;;;7338100;32;20175;-81
2022/11/18 06:13:24;;;;;;;6.47;2.20;;;8.80;99.90;;;;;;7312591;32;20149;-80
2022/11/18 06:17:56;;;;;;;5.28;1.92;;;8.80;99.90;;;;;;7317316;32;20116;-81
2022/11/18 06:21:58;;;;;;;8.35;2.20;;;8.90;99.90;;;;;;7328067;32;20127;-81
2022/11/18 06:26:01;;;;;;;8.85;2.60;;;8.80;99.90;;;;;;7342123;32;20228;-80
2022/11/18 06:30:03;;;;;;;8.38;2.35;;;8.90;99.90;;;;;;7350636;32;20231;-81
2022/11/18 06:34:05;;;;;;;7.95;2.70;;;8.80;99.90;;;;;;7342782;32;20171;-82
2022/11/18 06:38:08;;;;;;;8.63;3.97;;;8.80;99.90;;;;;;7323926;32;20111;-80
2022/11/18 06:42:10;;;;;;;9.10;3.20;;;8.80;99.90;;;;;;7324951;32;20131;-80
2022/11/18 06:50:36;;;;;;;7.10;2.37;;;8.90;99.90;;;;;;7328168;32;20112;-80
2022/11/18 06:54:38;;;;;;;7.15;3.78;;;8.80;99.90;;;;;;7322140;32;20127;-80
2022/11/18 06:58:40;;;;;;;9.85;2.78;;;8.90;99.90;;;;;;7316405;32;20116;-80
2022/11/18 07:02:42;;;;;;;6.60;2.28;;;8.90;99.90;;;;;;7338173;32;20111;-80
2022/11/18 07:06:44;;;;;;;8.50;2.53;;;8.90;99.90;;;;;;7325714;32;20201;-80
2022/11/18 07:10:52;;;;;;;8.60;2.37;;;8.90;99.90;;;;;;7321600;32;20952;-80
2022/11/18 07:14:54;;;;;;;8.02;2.28;;;9.00;99.90;;;;;;7315191;32;20119;-81
2022/11/18 07:18:56;;;;;;;7.28;2.17;;;9.10;99.90;;;;;;7339877;32;20249;-80
2022/11/18 07:22:58;;;;;;;7.37;2.40;;;9.00;99.90;;;;;;7322724;32;20180;-80
2022/11/18 07:27:00;;;;;;;8.30;2.10;;;9.00;99.90;;;;;;7311894;32;20694;-81
2022/11/18 07:31:09;;;;;;;5.78;2.05;;;9.00;99.90;;;;;;7325958;32;20185;-79
2022/11/18 07:35:12;;;;;;;8.45;2.10;;;9.00;99.90;;;;;;7337117;32;20528;-79
2022/11/18 07:39:14;;;;;;;7.28;2.22;;;9.00;99.90;;;;;;7329136;32;20131;-79
2022/11/18 07:43:16;;;;;;;7.25;2.17;;;9.00;99.90;;;;;;7338357;32;20156;-81
2022/11/18 07:47:18;;;;;;;6.40;2.05;;;9.00;99.90;;;;;;7339623;32;20522;-80
2022/11/18 07:51:25;;;;;;;8.82;2.28;;;9.00;99.90;;;;;;7329500;32;20112;-81
2022/11/18 07:55:27;;;;;;;7.15;2.12;;;9.10;99.90;;;;;;7319733;32;20190;-80
2022/11/18 07:59:33;;;;;;;8.27;2.22;;;9.10;99.90;;;;;;7315747;32;20127;-80
2022/11/18 08:03:35;;;;;;;4.12;2.05;;;9.10;99.90;;;;;;7327106;32;20265;-81
2022/11/18 08:07:38;;;;;;;10.25;2.47;;;9.20;99.90;;;;;;7322075;32;20214;-82
2022/11/18 08:11:40;;;;;;;8.27;2.22;;;9.30;99.90;;;;;;7316303;32;20125;-80
2022/11/18 08:15:43;;;;;;;6.03;2.08;;;9.40;99.90;;;;;;7321636;32;20506;-80
2022/11/18 08:19:45;;;;;;;5.90;2.45;;;9.40;99.90;;;;;;7335886;32;20637;-80
2022/11/18 08:23:56;;;;;;;6.00;2.20;;;9.50;99.90;;;;;;7323187;32;20119;-80
2022/11/18 08:27:58;;;;;;;7.87;2.20;;;9.70;99.90;;;;;;7331911;32;20193;-80
2022/11/18 08:32:01;;;;;;;8.32;2.20;;;9.80;99.90;;;;;;7320837;32;20115;-80
2022/11/18 08:36:13;;;;;;;5.53;2.10;;;9.80;99.90;;;;;;7324795;32;20560;-80
2022/11/18 08:40:16;;;;;;;6.97;1.98;;;9.80;99.90;;;;;;7324908;32;20219;-80
2022/11/18 08:44:18;;;;;;;6.47;2.05;;;9.90;99.90;;;;;;7334189;32;20565;-77
2022/11/18 08:48:20;;;;;;;9.55;2.05;;;9.90;99.90;;;;;;7303991;32;20119;-77
2022/11/18 08:52:22;;;;;;;5.40;2.10;;;9.90;99.90;;;;;;7329515;32;20192;-78
2022/11/18 08:56:24;;;;;;;9.38;1.90;;;10.00;99.90;;;;;;7307588;32;20127;-78
2022/11/18 09:00:27;;;;;;;4.72;1.80;;;10.00;99.90;;;;;;7339029;32;20181;-78
2022/11/18 09:04:29;;;;;;;9.48;2.20;;;10.20;99.90;;;;;;7327190;32;20146;-79
2022/11/18 09:08:31;;;;;;;6.07;2.15;;;10.10;99.90;;;;;;7326607;32;20734;-79
2022/11/18 09:12:33;;;;;;;6.20;1.62;;;10.10;99.90;;;;;;7324270;32;20158;-79
2022/11/18 09:16:36;;;;;;;7.80;2.40;;;10.10;99.90;;;;;;7310889;32;20526;-79
2022/11/18 09:20:38;;;;;;;8.48;2.60;;;10.10;99.90;;;;;;7328094;32;20774;-80
2022/11/18 09:24:40;;;;;;;6.10;1.87;;;10.20;99.90;;;;;;7326647;32;20581;-79
2022/11/18 09:28:53;;;;;;;6.40;2.17;;;10.30;99.90;;;;;;7311810;32;20139;-80
2022/11/18 09:32:55;;;;;;;5.47;2.00;;;10.40;99.90;;;;;;7303228;32;20959;-78
2022/11/18 09:36:57;;;;;;;5.18;2.00;;;10.40;99.90;;;;;;7317758;32;20210;-76
2022/11/18 09:41:27;;;;;;;5.03;1.83;;;10.40;99.90;;;;;;7311485;32;20119;-79
2022/11/18 09:45:39;;;;;;;6.65;1.95;;;10.20;99.90;;;;;;7312530;32;20533;-79
2022/11/18 09:49:42;;;;;;;8.70;2.12;;;10.20;99.90;;;;;;7327001;32;20191;-79
2022/11/18 09:53:45;;;;;;;7.37;2.20;;;10.30;99.90;;;;;;7330053;32;20279;-79
2022/11/18 09:57:53;;;;;;;7.78;1.70;;;10.20;99.90;;;;;;7315294;32;20127;-79
2022/11/18 10:02:00;;;;;;;7.57;1.90;;;10.20;99.90;;;;;;7314002;32;20587;-79
2022/11/18 10:06:09;;;;;;;6.00;2.00;;;10.30;99.90;;;;;;7331711;32;20124;-79
2022/11/18 10:10:20;;;;;;;7.82;1.95;;;10.30;99.90;;;;;;7330660;32;20476;-79
2022/11/18 10:14:47;;;;;;;8.80;1.85;;;10.40;99.90;;;;;;7322391;32;20178;-78
2022/11/18 10:19:04;;;;;;;8.80;1.80;;;10.40;99.90;;;;;;7330165;32;20184;-78
2022/11/18 10:23:17;;;;;;;8.13;1.95;;;10.70;99.90;;;;;;7328937;32;20135;-79
2022/11/18 10:27:20;;;;;;;4.97;1.62;;;10.80;99.90;;;;;;7337367;32;20176;-79
2022/11/18 10:31:22;;;;;;;7.05;1.67;;;11.00;99.90;;;;;;7331910;32;20180;-79
2022/11/18 10:35:33;;;;;;;8.32;1.92;;;11.00;99.90;;;;;;7338125;32;20476;-79
2022/11/18 10:39:50;;;;;;;10.13;1.70;;;11.10;99.90;;;;;;7322767;32;20131;-79
2022/11/18 10:43:56;;;;;;;10.27;2.33;;;11.40;99.90;;;;;;7316068;32;20214;-79
2022/11/18 10:48:08;;;;;;;12.68;2.33;;;11.50;99.90;;;;;;7318846;32;20287;-79
2022/11/18 10:52:13;;;;;;;5.70;1.52;;;11.60;99.90;;;;;;7331488;32;20130;-79
2022/11/18 10:56:15;;;;;;;9.35;1.70;;;11.70;99.90;;;;;;7300822;32;20112;-80
2022/11/18 11:00:34;;;;;;;4.93;1.23;;;11.70;99.90;;;;;;7326513;32;20120;-79
2022/11/18 11:04:37;;;;;;;8.05;1.95;;;11.70;99.90;;;;;;7330811;32;20276;-79
2022/11/18 11:13:39;;;;;;;5.85;1.48;;;11.70;99.90;;;;;;7334108;32;20236;-79
2022/11/18 11:18:40;;;;;;;11.32;2.10;;;11.80;99.90;;;;;;7332783;32;20177;-79
2022/11/18 11:22:11;;;;;;;6.03;1.58;;;11.80;99.90;;;;;;7316880;32;20100;-79
2022/11/18 11:26:35;;;;;;;6.93;1.75;;;11.80;99.90;;;;;;7315528;32;20448;-80
2022/11/18 11:31:19;;;;;;;7.35;1.50;;;11.90;99.90;;;;;;7328081;32;20144;-79
2022/11/18 11:35:25;;;;;;;6.28;1.70;;;11.70;99.90;;;;;;7325402;32;20096;-79
2022/11/18 11:39:36;;;;;;;7.50;1.58;;;11.70;99.90;;;;;;7325401;32;20102;-79
2022/11/18 11:44:28;;;;;;;6.80;1.45;;;11.60;99.90;;;;;;7311401;32;20119;-79
2022/11/18 11:48:32;;;;;;;9.85;1.70;;;11.60;99.90;;;;;;7274518;32;20558;-79
2022/11/18 11:53:05;;;;;;;8.98;1.60;;;11.70;99.90;;;;;;7333555;32;20128;-80
2022/11/18 11:57:28;;;;;;;4.45;1.40;;;11.90;99.90;;;;;;7335443;32;20194;-80
2022/11/18 12:01:38;;;;;;;7.87;1.58;;;12.00;99.90;;;;;;7319504;32;20131;-80
2022/11/18 12:05:41;;;;;;;8.23;1.48;;;12.00;99.90;;;;;;7313276;32;20564;-79
2022/11/18 12:09:56;;;;;;;9.20;1.77;;;12.00;99.90;;;;;;7330969;32;20104;-81
2022/11/18 12:14:35;;;;;;;3.95;1.60;;;11.80;99.90;;;;;;7307294;32;20211;-81
2022/11/18 12:18:58;;;;;;;10.35;1.55;;;11.70;99.90;;;;;;7337163;32;20107;-80
2022/11/18 12:23:25;;;;;;;13.02;1.70;;;11.70;99.90;;;;;;7303782;32;20108;-79
2022/11/18 12:27:27;;;;;;;9.45;1.30;;;11.80;99.90;;;;;;7314370;32;20202;-80
2022/11/18 12:31:34;;;;;;;5.60;1.00;;;11.80;99.90;;;;;;7320547;32;20115;-79
2022/11/18 12:35:36;;;;;;;6.00;1.25;;;11.90;99.90;;;;;;7309034;32;20145;-80
2022/11/18 12:39:40;;;;;;;8.00;1.23;;;11.80;99.90;;;;;;7320965;32;20324;-80
2022/11/18 12:43:49;;;;;;;5.55;1.30;;;11.90;99.90;;;;;;7311351;32;20124;-80
2022/11/18 12:47:51;;;;;;;10.43;1.40;;;11.90;99.90;;;;;;7319407;32;20172;-79
2022/11/18 12:52:00;;;;;;;7.32;1.15;;;11.90;99.90;;;;;;7321163;32;20112;-79
2022/11/18 12:56:16;;;;;;;5.95;1.48;;;11.70;99.90;;;;;;7323418;32;20143;-80
2022/11/18 13:00:28;;;;;;;5.22;1.50;;;11.70;99.90;;;;;;7324257;32;20206;-79
2022/11/18 13:04:31;;;;;;;5.82;1.17;;;11.60;99.90;;;;;;7313234;32;20137;-79
2022/11/18 13:08:33;;;;;;;6.30;1.70;;;11.70;99.90;;;;;;7330945;32;20153;-77
2022/11/18 13:12:36;;;;;;;5.43;1.12;;;11.60;99.90;;;;;;7332244;32;20190;-79
2022/11/18 13:23:50;;;;;;;7.75;1.52;;;11.60;99.90;;;;;;7323918;32;20172;-79
2022/11/18 13:25:25;;;;;;;5.07;1.20;;;11.60;99.90;;;;;;7324031;32;20164;-80
2022/11/18 13:29:38;;;;;;;8.18;1.48;;;11.50;99.90;;;;;;7328991;32;20284;-79
2022/11/18 13:33:40;;;;;;;5.70;1.62;;;11.40;99.90;;;;;;7332265;32;20479;-79
2022/11/18 13:37:57;;;;;;;8.20;1.50;;;11.10;99.90;;;;;;7313609;32;20481;-79
2022/11/18 13:42:00;;;;;;;9.77;2.37;;;11.00;99.90;;;;;;7319055;32;20601;-78
2022/11/18 13:46:21;;;;;;;7.40;1.50;;;10.80;99.90;;;;;;7339054;32;20131;-80
2022/11/18 13:50:26;;;;;;;9.45;1.70;;;10.70;99.90;;;;;;7318318;32;20157;-78
2022/11/18 13:54:28;;;;;;;10.13;1.90;;;10.80;99.90;;;;;;7332447;32;20206;-79
2022/11/18 13:58:41;;;;;;;10.45;2.00;;;10.70;99.90;;;;;;7315023;32;20131;-79
2022/11/18 14:03:26;;;;;;;7.32;1.62;;;10.70;99.90;;;;;;7327686;32;20215;-79
2022/11/18 14:07:29;;;;;;;7.45;2.10;;;10.50;99.90;;;;;;7328060;32;20229;-79
2022/11/18 14:11:41;;;;;;;7.78;1.98;;;10.40;99.90;;;;;;7317998;32;20150;-78
2022/11/18 14:15:43;;;;;;;8.10;1.73;;;10.20;99.90;;;;;;7329464;32;20139;-79
2022/11/18 14:19:48;;;;;;;8.52;1.90;;;10.00;99.90;;;;;;7328950;32;20108;-78
2022/11/18 14:23:50;;;;;;;10.75;2.00;;;9.90;99.90;;;;;;7324824;32;20161;-79
2022/11/18 14:27:56;;;;;;;6.15;1.62;;;9.90;99.90;;;;;;7330788;32;20584;-79
2022/11/18 14:32:10;;;;;;;13.60;2.43;;;9.70;99.90;;;;;;7339525;32;21075;-78
2022/11/18 14:36:16;;;;;;;9.30;2.17;;;9.70;99.90;;;;;;7323051;32;20124;-79
2022/11/18 14:40:18;;;;;;;8.38;2.25;;;9.60;99.90;;;;;;7312540;32;20187;-79
2022/11/18 14:44:23;;;;;;;9.10;3.00;;;9.40;99.90;;;;;;7328500;32;20626;-79
2022/11/18 14:48:26;;;;;;;10.27;2.92;;;9.30;99.90;;;;;;7303240;32;20509;-83
2022/11/18 14:52:33;;;;;;;10.60;3.42;;;9.20;99.90;;;;;;7316357;32;20195;-79
2022/11/18 14:56:35;;;;;;;8.20;2.80;;;9.10;99.90;;;;;;7319772;32;20111;-80
2022/11/18 15:00:36;;;;;;;10.00;3.17;;;9.00;99.90;;;;;;7328279;32;20313;-79
2022/11/18 15:04:38;;;;;;;10.68;2.83;;;8.90;99.90;;;;;;7326484;32;20226;-79
2022/11/18 15:08:42;;;;;;;13.43;2.58;;;8.70;99.90;;;;;;7316066;32;20132;-80
2022/11/18 15:12:43;;;;;;;16.95;6.53;;;8.50;99.90;;;;;;7327653;32;20183;-82
2022/11/18 15:16:45;;;;;;;6.53;2.67;;;8.30;99.90;;;;;;7319674;32;20127;-80
2022/11/18 15:20:47;;;;;;;11.82;2.55;;;8.10;99.90;;;;;;7314835;32;20578;-80
2022/11/18 15:24:49;;;;;;;35.22;18.73;;;8.00;99.90;;;;;;7329348;32;20281;-80
2022/11/18 15:28:53;;;;;;;29.23;15.43;;;7.80;99.90;;;;;;7318481;32;20154;-80
2022/11/18 15:32:55;;;;;;;27.10;14.45;;;7.70;99.90;;;;;;7321377;32;20167;-80
2022/11/18 15:36:57;;;;;;;24.25;13.18;;;7.60;99.90;;;;;;7319309;32;20131;-80
2022/11/18 15:40:59;;;;;;;27.55;13.15;;;7.40;99.90;;;;;;7310924;32;20185;-79
2022/11/18 15:45:01;;;;;;;11.77;5.60;;;7.30;99.90;;;;;;7334139;32;20206;-80
2022/11/18 15:49:03;;;;;;;8.80;4.28;;;7.20;99.90;;;;;;7335708;32;20107;-81
2022/11/18 15:53:05;;;;;;;7.75;2.95;;;7.00;99.90;;;;;;7351926;32;20142;-82
2022/11/18 15:57:06;;;;;;;10.10;3.00;;;6.90;99.90;;;;;;7346836;32;20100;-79
2022/11/18 16:01:08;;;;;;;6.50;2.62;;;6.70;99.90;;;;;;7333039;32;20099;-82
2022/11/18 16:05:10;;;;;;;4.78;2.58;;;6.60;99.90;;;;;;7322087;32;20119;-81
2022/11/18 16:09:13;;;;;;;10.27;3.12;;;6.60;99.90;;;;;;7317494;32;20147;-80
2022/11/18 16:13:20;;;;;;;7.28;2.50;;;6.50;99.90;;;;;;7318897;32;20120;-80
2022/11/18 16:17:22;;;;;;;7.50;3.28;;;6.40;99.90;;;;;;7329435;32;20529;-80
2022/11/18 16:21:24;;;;;;;6.95;2.92;;;6.30;99.90;;;;;;7319373;32;20111;-81
2022/11/18 16:25:26;;;;;;;14.73;4.72;;;6.20;99.90;;;;;;7332858;32;20568;-81
2022/11/18 16:29:28;;;;;;;14.50;4.70;;;6.00;99.90;;;;;;7331658;32;20112;-80
2022/11/18 16:33:30;;;;;;;12.27;4.60;;;5.90;99.90;;;;;;7355893;32;20448;-80
2022/11/18 16:37:32;;;;;;;14.63;5.28;;;5.80;99.90;;;;;;7328766;32;20194;-80
2022/11/18 16:41:34;;;;;;;11.25;5.47;;;5.90;99.90;;;;;;7336143;32;20534;-80
2022/11/18 16:45:36;;;;;;;7.90;4.82;;;5.70;99.90;;;;;;7322987;32;20123;-80
2022/11/18 16:49:38;;;;;;;14.07;4.80;;;5.60;99.90;;;;;;7309473;32;20100;-79
2022/11/18 16:53:39;;;;;;;14.07;4.70;;;5.50;99.90;;;;;;7325796;32;20266;-80
2022/11/18 16:57:41;;;;;;;15.43;4.57;;;5.50;99.90;;;;;;7313933;32;20172;-82
2022/11/18 17:01:43;;;;;;;14.48;6.97;;;5.50;99.90;;;;;;7333038;32;20134;-80
2022/11/18 17:05:45;;;;;;;14.98;8.57;;;5.50;99.90;;;;;;7316816;32;20115;-80
2022/11/18 17:09:47;;;;;;;13.20;5.70;;;5.50;99.90;;;;;;7327030;32;20215;-81
2022/11/18 17:13:49;;;;;;;15.05;5.72;;;5.50;99.90;;;;;;7309836;32;20111;-80
2022/11/18 17:17:58;;;;;;;16.12;6.22;;;5.50;99.90;;;;;;7318180;32;20127;-80
2022/11/18 17:22:00;;;;;;;14.65;7.65;;;5.40;99.90;;;;;;7317540;32;20210;-80
2022/11/18 17:26:02;;;;;;;15.70;8.60;;;5.40;99.90;;;;;;7332723;32;20934;-80
2022/11/18 17:30:04;;;;;;;16.10;9.35;;;5.30;99.90;;;;;;7331663;32;20115;-80
2022/11/18 17:34:09;;;;;;;19.27;7.82;;;5.30;99.90;;;;;;7314453;32;20119;-80
2022/11/18 17:38:11;;;;;;;13.30;7.82;;;5.20;99.90;;;;;;7316664;32;20120;-80
2022/11/18 17:42:13;;;;;;;13.62;7.60;;;5.20;99.90;;;;;;7331183;32;20119;-83
2022/11/18 17:46:15;;;;;;;18.55;9.15;;;5.20;99.90;;;;;;7330664;32;20111;-83
2022/11/18 17:50:16;;;;;;;17.60;8.70;;;5.30;99.90;;;;;;7335450;32;20126;-83
2022/11/18 17:54:19;;;;;;;18.98;9.18;;;5.30;99.90;;;;;;7341658;32;20119;-84
2022/11/18 17:58:21;;;;;;;14.05;8.38;;;5.30;99.90;;;;;;7337904;32;20115;-83
2022/11/18 18:02:23;;;;;;;15.77;7.03;;;5.30;99.90;;;;;;7324023;32;20135;-83
2022/11/18 18:06:25;;;;;;;12.23;7.05;;;5.40;99.90;;;;;;7315418;32;20707;-83
2022/11/18 18:10:27;;;;;;;16.45;6.85;;;5.50;99.90;;;;;;7344000;32;20146;-82
2022/11/18 18:14:29;;;;;;;14.02;7.05;;;5.50;99.90;;;;;;7343955;32;20215;-83
2022/11/18 18:18:31;;;;;;;15.98;7.03;;;5.60;99.90;;;;;;7342748;32;20182;-83
2022/11/18 18:22:33;;;;;;;18.00;11.55;;;5.60;99.90;;;;;;7341171;32;20523;-82
2022/11/18 18:26:35;;;;;;;16.42;10.30;;;5.60;99.90;;;;;;7309090;32;20275;-82
2022/11/18 18:30:37;;;;;;;20.98;10.38;;;5.60;99.90;;;;;;7320371;32;20214;-82
2022/11/18 18:34:38;;;;;;;20.20;11.30;;;6.10;99.90;;;;;;7333481;32;20153;-83
2022/11/18 18:38:42;;;;;;;18.75;10.32;;;6.20;99.90;;;;;;7312299;32;20217;-81
2022/11/18 18:42:44;;;;;;;14.80;9.55;;;6.40;99.90;;;;;;7333189;32;20184;-83
2022/11/18 18:46:46;;;;;;;20.02;9.95;;;6.50;99.90;;;;;;7333598;32;20260;-83
2022/11/18 18:50:47;;;;;;;19.20;11.30;;;6.60;99.90;;;;;;7341386;32;20522;-83
2022/11/18 18:54:49;;;;;;;24.12;12.95;;;6.70;99.90;;;;;;7348707;32;20190;-83
2022/11/18 18:58:51;;;;;;;20.02;11.50;;;6.80;99.90;;;;;;7313757;32;20199;-83
2022/11/18 19:02:53;;;;;;;13.65;10.13;;;6.80;99.90;;;;;;7339414;32;20111;-83
2022/11/18 19:06:55;;;;;;;17.60;9.43;;;6.80;99.90;;;;;;7329106;32;20099;-83
2022/11/18 19:11:04;;;;;;;30.15;17.48;;;6.80;99.90;;;;;;7340608;32;20112;-83
2022/11/18 19:15:06;;;;;;;20.25;12.27;;;6.90;99.90;;;;;;7340334;32;20554;-83
2022/11/18 19:19:11;;;;;;;21.45;11.15;;;6.90;99.90;;;;;;7342014;32;20159;-83
2022/11/18 19:23:13;;;;;;;19.25;11.02;;;6.90;99.90;;;;;;7333891;32;20119;-83
2022/11/18 19:27:15;;;;;;;18.00;10.05;;;6.90;99.90;;;;;;7345558;32;20104;-83
2022/11/18 19:31:18;;;;;;;26.10;11.25;;;6.90;99.90;;;;;;7341214;32;20116;-83
2022/11/18 19:35:21;;;;;;;16.50;11.12;;;6.90;99.90;;;;;;7351430;32;20254;-83
2022/11/18 19:39:23;;;;;;;20.12;12.57;;;7.00;99.90;;;;;;7334677;32;20183;-83
2022/11/18 19:43:26;;;;;;;30.45;16.20;;;6.90;99.90;;;;;;7340731;32;20611;-83
2022/11/18 19:47:28;;;;;;;23.40;12.98;;;7.00;99.90;;;;;;7350772;32;20142;-84
2022/11/18 19:51:29;;;;;;;21.83;12.10;;;7.00;99.90;;;;;;7352329;32;20763;-83
2022/11/18 19:55:31;;;;;;;20.50;9.80;;;7.00;99.90;;;;;;7333939;32;20120;-83
2022/11/18 19:59:33;;;;;;;14.73;8.70;;;7.00;99.90;;;;;;7334488;32;20123;-83
2022/11/18 20:03:35;;;;;;;13.98;8.93;;;7.10;99.90;;;;;;7328850;32;20139;-84
2022/11/18 20:07:37;;;;;;;14.20;9.48;;;7.10;99.90;;;;;;7325368;32;20198;-84
2022/11/18 20:11:39;;;;;;;15.55;9.10;;;7.20;99.90;;;;;;7314335;32;20187;-81
2022/11/18 20:15:42;;;;;;;31.90;16.33;;;7.20;99.90;;;;;;7345543;32;20263;-82
2022/11/18 20:19:44;;;;;;;27.42;15.45;;;7.20;99.90;;;;;;7324132;32;20119;-84
2022/11/18 20:23:51;;;;;;;31.00;15.35;;;7.30;99.90;;;;;;7325690;32;20287;-84
2022/11/18 20:27:53;;;;;;;27.42;13.02;;;7.50;99.90;;;;;;7321878;32;20123;-84
2022/11/18 20:31:54;;;;;;;22.20;13.32;;;7.40;99.90;;;;;;7343627;32;20501;-84
2022/11/18 20:36:02;;;;;;;20.80;12.93;;;7.40;99.90;;;;;;7343659;32;20647;-83
2022/11/18 20:40:05;;;;;;;24.48;14.98;;;7.50;99.90;;;;;;7330656;32;20182;-83
2022/11/18 20:44:07;;;;;;;18.92;11.15;;;7.50;99.90;;;;;;7336241;32;20222;-84
2022/11/18 20:48:10;;;;;;;15.10;9.02;;;7.50;99.90;;;;;;7339575;32;20159;-83
2022/11/18 20:52:12;;;;;;;17.80;8.60;;;7.50;99.90;;;;;;7337535;32;20130;-81
2022/11/18 20:56:19;;;;;;;13.32;9.60;;;7.50;99.90;;;;;;7349986;32;20115;-80
2022/11/18 21:00:21;;;;;;;17.65;11.45;;;7.40;99.90;;;;;;7328016;32;20202;-81
2022/11/18 21:04:23;;;;;;;24.83;15.85;;;7.40;99.90;;;;;;7329948;32;20143;-80
2022/11/18 21:08:25;;;;;;;21.60;15.77;;;7.40;99.90;;;;;;7309682;32;20188;-81
2022/11/18 21:12:27;;;;;;;22.35;15.45;;;7.40;99.90;;;;;;7317059;32;20108;-81
2022/11/18 21:16:29;;;;;;;25.65;14.77;;;7.40;99.90;;;;;;7340511;32;20119;-80
2022/11/18 21:24:52;;;;;;;20.15;12.95;;;7.40;99.90;;;;;;7323843;32;20169;-80
2022/11/18 21:28:57;;;;;;;15.95;12.00;;;7.40;99.90;;;;;;7328946;32;20123;-80
2022/11/18 21:32:59;;;;;;;14.48;10.40;;;7.30;99.90;;;;;;7338310;32;20206;-80
2022/11/18 21:37:01;;;;;;;10.93;8.07;;;7.20;99.90;;;;;;7317797;32;20225;-80
2022/11/18 21:41:03;;;;;;;8.75;7.20;;;7.10;99.90;;;;;;7315860;32;20237;-80
2022/11/18 21:45:06;;;;;;;12.02;7.68;;;7.10;99.90;;;;;;7321708;32;20171;-79
2022/11/18 21:49:09;;;;;;;10.55;7.68;;;6.90;99.90;;;;;;7331384;32;20180;-80
2022/11/18 21:53:10;;;;;;;10.52;7.45;;;6.90;99.90;;;;;;7335423;32;20167;-79
2022/11/18 21:57:12;;;;;;;12.77;8.82;;;6.90;99.90;;;;;;7311997;32;20111;-80
2022/11/18 22:01:20;;;;;;;12.13;9.02;;;6.90;99.90;;;;;;7342647;32;20120;-80